sensor_id;sensor_type;location;lat;lon;timestamp;temperature;humidity
20463;DHT22;10390;53.566;9.980;2023-06-04T00:01:22;27.40;1.00
20463;DHT22;10390;53.566;9.980;2023-06-04T00:03:48;27.40;1.00
20463;DHT22;10390;53.566;9.980;2023-06-04T00:06:13;27.40;1.00
20463;DHT22;10390;53.566;9.980;2023-06-04T00:08:39;27.40;1.00
20463;DHT22;10390;53.566;9.980;2023-06-04T00:11:05;27.40;1.00
20463;DHT22;10390;53.566;9.980;2023-06-04T00:13:31;27.40;1.00
20463;DHT22;10390;53.566;9.980;2023-06-04T00:15:56;27.40;1.00
20463;DHT22;10390;53.566;9.980;2023-06-04T00:18:22;27.40;1.00
20463;DHT22;10390;53.566;9.980;2023-06-04T00:20:47;27.40;1.00
20463;DHT22;10390;53.566;9.980;2023-06-04T00:23:13;27.40;1.00
20463;DHT22;10390;53.566;9.980;2023-06-04T00:25:38;27.40;1.00
20463;DHT22;10390;53.566;9.980;2023-06-04T00:28:04;27.30;1.00
20463;DHT22;10390;53.566;9.980;2023-06-04T00:30:30;27.40;1.00
20463;DHT22;10390;53.566;9.980;2023-06-04T00:32:56;27.40;1.00
20463;DHT22;10390;53.566;9.980;2023-06-04T00:35:21;27.40;1.00
20463;DHT22;10390;53.566;9.980;2023-06-04T00:37:47;27.30;1.00
20463;DHT22;10390;53.566;9.980;2023-06-04T00:40:13;27.30;1.00
20463;DHT22;10390;53.566;9.980;2023-06-04T00:42:38;27.40;1.00
20463;DHT22;10390;53.566;9.980;2023-06-04T00:45:04;27.40;1.00
20463;DHT22;10390;53.566;9.980;2023-06-04T00:47:34;27.30;1.00
20463;DHT22;10390;53.566;9.980;2023-06-04T00:50:00;27.30;1.00
20463;DHT22;10390;53.566;9.980;2023-06-04T00:52:26;27.40;1.00
20463;DHT22;10390;53.566;9.980;2023-06-04T00:54:52;27.30;1.00
20463;DHT22;10390;53.566;9.980;2023-06-04T00:57:21;27.30;1.00
20463;DHT22;10390;53.566;9.980;2023-06-04T00:59:46;27.30;1.00
20463;DHT22;10390;53.566;9.980;2023-06-04T01:02:18;27.30;1.00
20463;DHT22;10390;53.566;9.980;2023-06-04T01:07:48;27.30;1.00
20463;DHT22;10390;53.566;9.980;2023-06-04T01:10:14;27.30;1.00
20463;DHT22;10390;53.566;9.980;2023-06-04T01:12:41;27.30;1.00
20463;DHT22;10390;53.566;9.980;2023-06-04T01:15:08;27.30;1.00
20463;DHT22;10390;53.566;9.980;2023-06-04T01:17:42;27.30;1.00
20463;DHT22;10390;53.566;9.980;2023-06-04T01:25:25;27.20;1.00
20463;DHT22;10390;53.566;9.980;2023-06-04T01:27:56;27.30;1.00
20463;DHT22;10390;53.566;9.980;2023-06-04T01:30:30;27.30;1.00
20463;DHT22;10390;53.566;9.980;2023-06-04T01:32:56;27.30;1.00
20463;DHT22;10390;53.566;9.980;2023-06-04T01:35:22;27.30;1.00
20463;DHT22;10390;53.566;9.980;2023-06-04T01:37:49;27.30;1.00
20463;DHT22;10390;53.566;9.980;2023-06-04T01:40:15;27.20;1.00
20463;DHT22;10390;53.566;9.980;2023-06-04T01:42:41;27.30;1.00
20463;DHT22;10390;53.566;9.980;2023-06-04T01:45:08;27.30;1.00
20463;DHT22;10390;53.566;9.980;2023-06-04T01:47:33;27.20;1.00
20463;DHT22;10390;53.566;9.980;2023-06-04T01:50:06;27.20;1.00
20463;DHT22;10390;53.566;9.980;2023-06-04T01:52:43;27.30;1.00
20463;DHT22;10390;53.566;9.980;2023-06-04T01:55:11;27.20;1.00
20463;DHT22;10390;53.566;9.980;2023-06-04T01:57:39;27.30;1.00
20463;DHT22;10390;53.566;9.980;2023-06-04T02:00:06;27.20;1.00
20463;DHT22;10390;53.566;9.980;2023-06-04T02:02:36;27.30;1.00
20463;DHT22;10390;53.566;9.980;2023-06-04T02:05:04;27.20;1.00
20463;DHT22;10390;53.566;9.980;2023-06-04T02:07:35;27.20;1.00
20463;DHT22;10390;53.566;9.980;2023-06-04T02:10:15;27.20;1.00
20463;DHT22;10390;53.566;9.980;2023-06-04T02:12:52;27.20;1.00
20463;DHT22;10390;53.566;9.980;2023-06-04T02:15:18;27.20;1.00
20463;DHT22;10390;53.566;9.980;2023-06-04T02:17:43;27.20;1.00
20463;DHT22;10390;53.566;9.980;2023-06-04T02:20:11;27.20;1.00
20463;DHT22;10390;53.566;9.980;2023-06-04T02:22:37;27.20;1.00
20463;DHT22;10390;53.566;9.980;2023-06-04T02:25:04;27.20;1.00
20463;DHT22;10390;53.566;9.980;2023-06-04T02:27:30;27.20;1.00
20463;DHT22;10390;53.566;9.980;2023-06-04T02:29:56;27.10;1.00
20463;DHT22;10390;53.566;9.980;2023-06-04T02:32:21;27.20;1.00
20463;DHT22;10390;53.566;9.980;2023-06-04T02:34:47;27.20;1.00
20463;DHT22;10390;53.566;9.980;2023-06-04T02:37:14;27.10;1.00
20463;DHT22;10390;53.566;9.980;2023-06-04T02:39:39;27.10;1.00
20463;DHT22;10390;53.566;9.980;2023-06-04T02:42:05;27.10;1.00
20463;DHT22;10390;53.566;9.980;2023-06-04T02:44:31;27.10;1.00
20463;DHT22;10390;53.566;9.980;2023-06-04T02:46:57;27.10;1.00
20463;DHT22;10390;53.566;9.980;2023-06-04T02:49:22;27.10;1.00
20463;DHT22;10390;53.566;9.980;2023-06-04T02:51:48;27.10;1.00
20463;DHT22;10390;53.566;9.980;2023-06-04T02:54:14;27.10;1.00
20463;DHT22;10390;53.566;9.980;2023-06-04T02:56:39;27.10;1.00
20463;DHT22;10390;53.566;9.980;2023-06-04T02:59:06;27.10;1.00
20463;DHT22;10390;53.566;9.980;2023-06-04T03:01:34;27.10;1.00
20463;DHT22;10390;53.566;9.980;2023-06-04T03:04:00;27.10;1.00
20463;DHT22;10390;53.566;9.980;2023-06-04T03:06:29;27.10;1.00
20463;DHT22;10390;53.566;9.980;2023-06-04T03:08:56;27.10;1.00
20463;DHT22;10390;53.566;9.980;2023-06-04T03:11:22;27.10;1.00
20463;DHT22;10390;53.566;9.980;2023-06-04T03:13:48;27.10;1.00
20463;DHT22;10390;53.566;9.980;2023-06-04T03:16:14;27.10;1.00
20463;DHT22;10390;53.566;9.980;2023-06-04T03:18:41;27.10;1.00
20463;DHT22;10390;53.566;9.980;2023-06-04T03:21:07;27.10;1.00
20463;DHT22;10390;53.566;9.980;2023-06-04T03:23:33;27.10;1.00
20463;DHT22;10390;53.566;9.980;2023-06-04T03:26:01;27.10;1.00
20463;DHT22;10390;53.566;9.980;2023-06-04T03:28:26;27.10;1.00
20463;DHT22;10390;53.566;9.980;2023-06-04T03:30:52;27.10;1.00
20463;DHT22;10390;53.566;9.980;2023-06-04T03:33:18;27.10;1.00
20463;DHT22;10390;53.566;9.980;2023-06-04T03:35:43;27.00;1.00
20463;DHT22;10390;53.566;9.980;2023-06-04T03:38:09;27.00;1.00
20463;DHT22;10390;53.566;9.980;2023-06-04T03:40:35;27.00;1.00
20463;DHT22;10390;53.566;9.980;2023-06-04T03:43:01;27.10;1.00
20463;DHT22;10390;53.566;9.980;2023-06-04T03:45:29;27.00;1.00
20463;DHT22;10390;53.566;9.980;2023-06-04T03:47:55;27.00;1.00
20463;DHT22;10390;53.566;9.980;2023-06-04T03:50:20;27.00;1.00
20463;DHT22;10390;53.566;9.980;2023-06-04T03:52:47;27.00;1.00
20463;DHT22;10390;53.566;9.980;2023-06-04T03:55:13;27.00;1.00
20463;DHT22;10390;53.566;9.980;2023-06-04T03:57:39;27.00;1.00
20463;DHT22;10390;53.566;9.980;2023-06-04T04:00:06;27.00;1.00
20463;DHT22;10390;53.566;9.980;2023-06-04T04:02:33;27.00;1.00
20463;DHT22;10390;53.566;9.980;2023-06-04T04:04:58;27.00;1.00
20463;DHT22;10390;53.566;9.980;2023-06-04T04:07:25;27.00;1.00
20463;DHT22;10390;53.566;9.980;2023-06-04T04:09:52;27.00;1.00
20463;DHT22;10390;53.566;9.980;2023-06-04T04:12:17;27.00;1.00
20463;DHT22;10390;53.566;9.980;2023-06-04T04:14:43;27.00;1.00
20463;DHT22;10390;53.566;9.980;2023-06-04T04:17:08;26.90;1.00
20463;DHT22;10390;53.566;9.980;2023-06-04T04:19:34;27.00;1.00
20463;DHT22;10390;53.566;9.980;2023-06-04T04:21:59;27.00;1.00
20463;DHT22;10390;53.566;9.980;2023-06-04T04:24:27;26.90;1.00
20463;DHT22;10390;53.566;9.980;2023-06-04T04:26:53;26.90;1.00
20463;DHT22;10390;53.566;9.980;2023-06-04T04:29:22;26.90;1.00
20463;DHT22;10390;53.566;9.980;2023-06-04T04:31:50;26.90;1.00
20463;DHT22;10390;53.566;9.980;2023-06-04T04:34:16;26.90;1.00
20463;DHT22;10390;53.566;9.980;2023-06-04T04:36:43;26.90;1.00
20463;DHT22;10390;53.566;9.980;2023-06-04T04:39:10;26.90;1.00
20463;DHT22;10390;53.566;9.980;2023-06-04T04:41:37;26.90;1.00
20463;DHT22;10390;53.566;9.980;2023-06-04T04:44:04;26.90;1.00
20463;DHT22;10390;53.566;9.980;2023-06-04T04:46:30;26.90;1.00
20463;DHT22;10390;53.566;9.980;2023-06-04T04:48:56;26.90;1.00
20463;DHT22;10390;53.566;9.980;2023-06-04T04:51:22;26.90;1.00
20463;DHT22;10390;53.566;9.980;2023-06-04T04:53:47;26.90;1.00
20463;DHT22;10390;53.566;9.980;2023-06-04T04:56:13;26.90;1.00
20463;DHT22;10390;53.566;9.980;2023-06-04T04:58:39;26.90;1.00
20463;DHT22;10390;53.566;9.980;2023-06-04T05:01:05;26.90;1.00
20463;DHT22;10390;53.566;9.980;2023-06-04T05:03:30;26.90;1.00
20463;DHT22;10390;53.566;9.980;2023-06-04T05:05:56;26.90;1.00
20463;DHT22;10390;53.566;9.980;2023-06-04T05:08:21;26.90;1.00
20463;DHT22;10390;53.566;9.980;2023-06-04T05:10:47;26.90;1.00
20463;DHT22;10390;53.566;9.980;2023-06-04T05:13:13;27.00;1.00
20463;DHT22;10390;53.566;9.980;2023-06-04T05:15:38;27.00;1.00
20463;DHT22;10390;53.566;9.980;2023-06-04T05:18:07;27.00;1.00
20463;DHT22;10390;53.566;9.980;2023-06-04T05:20:33;27.00;1.00
20463;DHT22;10390;53.566;9.980;2023-06-04T05:23:00;27.00;1.00
20463;DHT22;10390;53.566;9.980;2023-06-04T05:25:27;27.00;1.00
20463;DHT22;10390;53.566;9.980;2023-06-04T05:27:55;27.00;1.00
20463;DHT22;10390;53.566;9.980;2023-06-04T05:30:21;27.00;1.00
20463;DHT22;10390;53.566;9.980;2023-06-04T05:32:47;27.10;1.00
20463;DHT22;10390;53.566;9.980;2023-06-04T05:35:12;27.10;1.00
20463;DHT22;10390;53.566;9.980;2023-06-04T05:37:38;27.10;1.00
20463;DHT22;10390;53.566;9.980;2023-06-04T05:40:06;27.20;1.00
20463;DHT22;10390;53.566;9.980;2023-06-04T05:42:32;27.20;1.00
20463;DHT22;10390;53.566;9.980;2023-06-04T05:44:58;27.20;1.00
20463;DHT22;10390;53.566;9.980;2023-06-04T05:47:23;27.20;1.00
20463;DHT22;10390;53.566;9.980;2023-06-04T05:49:49;27.30;1.00
20463;DHT22;10390;53.566;9.980;2023-06-04T05:52:15;27.30;1.00
20463;DHT22;10390;53.566;9.980;2023-06-04T05:54:41;27.40;1.00
20463;DHT22;10390;53.566;9.980;2023-06-04T05:57:06;27.40;1.00
20463;DHT22;10390;53.566;9.980;2023-06-04T05:59:32;27.40;1.00
20463;DHT22;10390;53.566;9.980;2023-06-04T06:01:58;27.40;1.00
20463;DHT22;10390;53.566;9.980;2023-06-04T06:04:24;27.40;1.00
20463;DHT22;10390;53.566;9.980;2023-06-04T06:06:49;27.40;1.00
20463;DHT22;10390;53.566;9.980;2023-06-04T06:09:15;27.50;1.00
20463;DHT22;10390;53.566;9.980;2023-06-04T06:11:44;27.50;1.00
20463;DHT22;10390;53.566;9.980;2023-06-04T06:14:10;27.60;1.00
20463;DHT22;10390;53.566;9.980;2023-06-04T06:16:36;27.60;1.00
20463;DHT22;10390;53.566;9.980;2023-06-04T06:19:02;27.60;1.00
20463;DHT22;10390;53.566;9.980;2023-06-04T06:21:27;27.60;1.00
20463;DHT22;10390;53.566;9.980;2023-06-04T06:23:54;27.70;1.00
20463;DHT22;10390;53.566;9.980;2023-06-04T06:26:20;27.70;1.00
20463;DHT22;10390;53.566;9.980;2023-06-04T06:28:45;27.70;1.00
20463;DHT22;10390;53.566;9.980;2023-06-04T06:31:11;27.80;1.00
20463;DHT22;10390;53.566;9.980;2023-06-04T06:33:36;27.80;1.00
20463;DHT22;10390;53.566;9.980;2023-06-04T06:36:07;27.80;1.00
20463;DHT22;10390;53.566;9.980;2023-06-04T06:38:33;27.90;1.00
20463;DHT22;10390;53.566;9.980;2023-06-04T06:40:59;27.90;1.00
20463;DHT22;10390;53.566;9.980;2023-06-04T06:43:24;27.90;1.00
20463;DHT22;10390;53.566;9.980;2023-06-04T06:45:50;27.90;1.00
20463;DHT22;10390;53.566;9.980;2023-06-04T06:48:16;28.00;1.00
20463;DHT22;10390;53.566;9.980;2023-06-04T06:50:42;28.00;1.00
20463;DHT22;10390;53.566;9.980;2023-06-04T06:53:07;28.00;1.00
20463;DHT22;10390;53.566;9.980;2023-06-04T06:55:33;28.10;1.00
20463;DHT22;10390;53.566;9.980;2023-06-04T06:57:58;28.10;1.00
20463;DHT22;10390;53.566;9.980;2023-06-04T07:00:26;28.10;1.00
20463;DHT22;10390;53.566;9.980;2023-06-04T07:02:53;28.10;1.00
20463;DHT22;10390;53.566;9.980;2023-06-04T07:05:19;28.20;1.00
20463;DHT22;10390;53.566;9.980;2023-06-04T07:07:45;28.20;1.00
20463;DHT22;10390;53.566;9.980;2023-06-04T07:10:11;28.20;1.00
20463;DHT22;10390;53.566;9.980;2023-06-04T07:12:38;28.20;1.00
20463;DHT22;10390;53.566;9.980;2023-06-04T07:15:06;28.30;1.00
20463;DHT22;10390;53.566;9.980;2023-06-04T07:17:32;28.30;1.00
20463;DHT22;10390;53.566;9.980;2023-06-04T07:19:57;28.30;1.00
20463;DHT22;10390;53.566;9.980;2023-06-04T07:22:23;28.30;1.00
20463;DHT22;10390;53.566;9.980;2023-06-04T07:24:48;28.30;1.00
20463;DHT22;10390;53.566;9.980;2023-06-04T07:27:15;28.40;1.00
20463;DHT22;10390;53.566;9.980;2023-06-04T07:29:43;28.40;1.00
20463;DHT22;10390;53.566;9.980;2023-06-04T07:32:10;28.40;1.00
20463;DHT22;10390;53.566;9.980;2023-06-04T07:34:35;28.50;1.00
20463;DHT22;10390;53.566;9.980;2023-06-04T07:37:02;28.50;1.00
20463;DHT22;10390;53.566;9.980;2023-06-04T07:39:28;28.50;1.00
20463;DHT22;10390;53.566;9.980;2023-06-04T07:41:54;28.50;1.00
20463;DHT22;10390;53.566;9.980;2023-06-04T07:44:19;28.50;1.00
20463;DHT22;10390;53.566;9.980;2023-06-04T07:46:45;28.50;1.00
20463;DHT22;10390;53.566;9.980;2023-06-04T07:49:11;28.60;1.00
20463;DHT22;10390;53.566;9.980;2023-06-04T07:51:36;28.60;1.00
20463;DHT22;10390;53.566;9.980;2023-06-04T07:54:02;28.60;1.00
20463;DHT22;10390;53.566;9.980;2023-06-04T07:56:28;28.70;1.00
20463;DHT22;10390;53.566;9.980;2023-06-04T07:58:54;28.60;1.00
20463;DHT22;10390;53.566;9.980;2023-06-04T08:01:20;28.60;1.00
20463;DHT22;10390;53.566;9.980;2023-06-04T08:03:47;28.70;1.00
20463;DHT22;10390;53.566;9.980;2023-06-04T08:06:12;28.70;1.00
20463;DHT22;10390;53.566;9.980;2023-06-04T08:08:45;28.80;1.00
20463;DHT22;10390;53.566;9.980;2023-06-04T08:11:11;28.70;1.00
20463;DHT22;10390;53.566;9.980;2023-06-04T08:13:38;28.80;1.00
20463;DHT22;10390;53.566;9.980;2023-06-04T08:16:04;28.80;1.00
20463;DHT22;10390;53.566;9.980;2023-06-04T08:18:30;28.80;1.00
20463;DHT22;10390;53.566;9.980;2023-06-04T08:20:55;28.80;1.00
20463;DHT22;10390;53.566;9.980;2023-06-04T08:23:21;28.80;1.00
20463;DHT22;10390;53.566;9.980;2023-06-04T08:25:47;28.90;1.00
20463;DHT22;10390;53.566;9.980;2023-06-04T08:28:16;28.90;1.00
20463;DHT22;10390;53.566;9.980;2023-06-04T08:30:44;28.90;1.00
20463;DHT22;10390;53.566;9.980;2023-06-04T08:33:11;28.90;1.00
20463;DHT22;10390;53.566;9.980;2023-06-04T08:35:36;28.90;1.00
20463;DHT22;10390;53.566;9.980;2023-06-04T08:38:02;29.00;1.00
20463;DHT22;10390;53.566;9.980;2023-06-04T08:40:27;28.90;1.00
20463;DHT22;10390;53.566;9.980;2023-06-04T08:42:56;29.00;1.00
20463;DHT22;10390;53.566;9.980;2023-06-04T08:45:24;29.00;1.00
20463;DHT22;10390;53.566;9.980;2023-06-04T08:47:53;29.00;1.00
20463;DHT22;10390;53.566;9.980;2023-06-04T08:50:23;29.00;1.00
20463;DHT22;10390;53.566;9.980;2023-06-04T08:52:54;29.00;1.00
20463;DHT22;10390;53.566;9.980;2023-06-04T08:55:22;29.00;1.00
20463;DHT22;10390;53.566;9.980;2023-06-04T08:57:49;29.10;1.00
20463;DHT22;10390;53.566;9.980;2023-06-04T09:00:17;29.00;1.00
20463;DHT22;10390;53.566;9.980;2023-06-04T09:02:45;29.10;1.00
20463;DHT22;10390;53.566;9.980;2023-06-04T09:05:20;29.10;1.00
20463;DHT22;10390;53.566;9.980;2023-06-04T09:07:46;29.10;1.00
20463;DHT22;10390;53.566;9.980;2023-06-04T09:10:17;29.10;1.00
20463;DHT22;10390;53.566;9.980;2023-06-04T09:12:46;29.10;1.00
20463;DHT22;10390;53.566;9.980;2023-06-04T09:15:12;29.10;1.00
20463;DHT22;10390;53.566;9.980;2023-06-04T09:17:38;29.10;1.00
20463;DHT22;10390;53.566;9.980;2023-06-04T09:20:04;29.10;1.00
20463;DHT22;10390;53.566;9.980;2023-06-04T09:22:35;29.10;1.00
20463;DHT22;10390;53.566;9.980;2023-06-04T09:25:05;29.10;1.00
20463;DHT22;10390;53.566;9.980;2023-06-04T09:27:39;29.20;1.00
20463;DHT22;10390;53.566;9.980;2023-06-04T09:30:06;29.10;1.00
20463;DHT22;10390;53.566;9.980;2023-06-04T09:32:33;29.10;1.00
20463;DHT22;10390;53.566;9.980;2023-06-04T09:35:16;29.10;1.00
20463;DHT22;10390;53.566;9.980;2023-06-04T09:37:51;29.10;1.00
20463;DHT22;10390;53.566;9.980;2023-06-04T09:40:17;29.10;1.00
20463;DHT22;10390;53.566;9.980;2023-06-04T09:42:47;29.10;1.00
20463;DHT22;10390;53.566;9.980;2023-06-04T09:45:33;29.20;1.00
20463;DHT22;10390;53.566;9.980;2023-06-04T09:48:00;29.10;1.00
20463;DHT22;10390;53.566;9.980;2023-06-04T09:50:27;29.10;1.00
20463;DHT22;10390;53.566;9.980;2023-06-04T09:52:53;29.10;1.00
20463;DHT22;10390;53.566;9.980;2023-06-04T09:55:19;29.20;1.00
20463;DHT22;10390;53.566;9.980;2023-06-04T09:57:50;29.10;1.00
20463;DHT22;10390;53.566;9.980;2023-06-04T10:00:17;29.10;1.00
20463;DHT22;10390;53.566;9.980;2023-06-04T10:02:44;29.20;1.00
20463;DHT22;10390;53.566;9.980;2023-06-04T10:05:14;29.10;1.00
20463;DHT22;10390;53.566;9.980;2023-06-04T10:07:44;29.10;1.00
20463;DHT22;10390;53.566;9.980;2023-06-04T10:10:18;29.20;1.00
20463;DHT22;10390;53.566;9.980;2023-06-04T10:12:46;29.10;1.00
20463;DHT22;10390;53.566;9.980;2023-06-04T10:15:17;29.10;1.00
20463;DHT22;10390;53.566;9.980;2023-06-04T10:17:43;29.10;1.00
20463;DHT22;10390;53.566;9.980;2023-06-04T10:20:09;29.10;1.00
20463;DHT22;10390;53.566;9.980;2023-06-04T10:22:36;29.10;1.00
20463;DHT22;10390;53.566;9.980;2023-06-04T10:25:02;29.10;1.00
20463;DHT22;10390;53.566;9.980;2023-06-04T10:27:33;29.10;1.00
20463;DHT22;10390;53.566;9.980;2023-06-04T10:30:01;29.10;1.00
20463;DHT22;10390;53.566;9.980;2023-06-04T10:32:29;29.10;1.00
20463;DHT22;10390;53.566;9.980;2023-06-04T10:34:55;29.10;1.00
20463;DHT22;10390;53.566;9.980;2023-06-04T10:37:24;29.10;1.00
20463;DHT22;10390;53.566;9.980;2023-06-04T10:39:57;29.10;1.00
20463;DHT22;10390;53.566;9.980;2023-06-04T10:42:24;29.10;1.00
20463;DHT22;10390;53.566;9.980;2023-06-04T10:44:54;29.10;1.00
20463;DHT22;10390;53.566;9.980;2023-06-04T10:47:25;29.10;1.00
20463;DHT22;10390;53.566;9.980;2023-06-04T10:49:51;29.10;1.00
20463;DHT22;10390;53.566;9.980;2023-06-04T10:52:18;29.10;1.00
20463;DHT22;10390;53.566;9.980;2023-06-04T10:54:45;29.10;1.00
20463;DHT22;10390;53.566;9.980;2023-06-04T10:57:12;29.00;1.00
20463;DHT22;10390;53.566;9.980;2023-06-04T10:59:38;29.10;1.00
20463;DHT22;10390;53.566;9.980;2023-06-04T11:02:12;29.10;1.00
20463;DHT22;10390;53.566;9.980;2023-06-04T11:04:39;29.00;1.00
20463;DHT22;10390;53.566;9.980;2023-06-04T11:07:08;29.00;1.00
20463;DHT22;10390;53.566;9.980;2023-06-04T11:09:35;29.00;1.00
20463;DHT22;10390;53.566;9.980;2023-06-04T11:12:03;29.00;1.00
20463;DHT22;10390;53.566;9.980;2023-06-04T11:14:29;29.00;1.00
20463;DHT22;10390;53.566;9.980;2023-06-04T11:16:55;29.00;1.00
20463;DHT22;10390;53.566;9.980;2023-06-04T11:19:20;29.00;1.00
20463;DHT22;10390;53.566;9.980;2023-06-04T11:21:46;29.00;1.00
20463;DHT22;10390;53.566;9.980;2023-06-04T11:24:12;29.00;1.00
20463;DHT22;10390;53.566;9.980;2023-06-04T11:26:38;29.00;1.00
20463;DHT22;10390;53.566;9.980;2023-06-04T11:29:09;29.00;1.00
20463;DHT22;10390;53.566;9.980;2023-06-04T11:31:47;28.90;1.00
20463;DHT22;10390;53.566;9.980;2023-06-04T11:34:26;28.90;1.00
20463;DHT22;10390;53.566;9.980;2023-06-04T11:36:52;28.90;1.00
20463;DHT22;10390;53.566;9.980;2023-06-04T11:39:19;28.90;1.00
20463;DHT22;10390;53.566;9.980;2023-06-04T11:41:45;28.90;1.00
20463;DHT22;10390;53.566;9.980;2023-06-04T11:44:12;28.90;1.00
20463;DHT22;10390;53.566;9.980;2023-06-04T11:46:42;28.90;1.00
20463;DHT22;10390;53.566;9.980;2023-06-04T11:49:11;28.90;1.00
20463;DHT22;10390;53.566;9.980;2023-06-04T11:51:37;29.00;1.00
20463;DHT22;10390;53.566;9.980;2023-06-04T11:54:03;28.90;1.00
20463;DHT22;10390;53.566;9.980;2023-06-04T11:56:29;28.90;1.00
20463;DHT22;10390;53.566;9.980;2023-06-04T11:58:55;28.90;1.00
20463;DHT22;10390;53.566;9.980;2023-06-04T12:01:21;28.90;1.00
20463;DHT22;10390;53.566;9.980;2023-06-04T12:03:48;28.90;1.00
20463;DHT22;10390;53.566;9.980;2023-06-04T12:06:17;28.90;1.00
20463;DHT22;10390;53.566;9.980;2023-06-04T12:08:48;28.80;1.00
20463;DHT22;10390;53.566;9.980;2023-06-04T12:11:29;28.90;1.00
20463;DHT22;10390;53.566;9.980;2023-06-04T12:13:58;28.90;1.00
20463;DHT22;10390;53.566;9.980;2023-06-04T12:16:25;28.80;1.00
20463;DHT22;10390;53.566;9.980;2023-06-04T12:18:51;28.90;1.00
20463;DHT22;10390;53.566;9.980;2023-06-04T12:21:21;28.90;1.00
20463;DHT22;10390;53.566;9.980;2023-06-04T12:23:53;28.80;1.00
20463;DHT22;10390;53.566;9.980;2023-06-04T12:26:22;28.80;1.00
20463;DHT22;10390;53.566;9.980;2023-06-04T12:29:07;28.80;1.00
20463;DHT22;10390;53.566;9.980;2023-06-04T12:31:33;28.80;1.00
20463;DHT22;10390;53.566;9.980;2023-06-04T12:34:01;28.80;1.00
20463;DHT22;10390;53.566;9.980;2023-06-04T12:36:27;28.80;1.00
20463;DHT22;10390;53.566;9.980;2023-06-04T12:38:57;28.70;1.00
20463;DHT22;10390;53.566;9.980;2023-06-04T12:41:23;28.70;1.00
20463;DHT22;10390;53.566;9.980;2023-06-04T12:43:48;28.80;1.00
20463;DHT22;10390;53.566;9.980;2023-06-04T12:46:14;28.80;1.00
20463;DHT22;10390;53.566;9.980;2023-06-04T12:48:40;28.80;1.00
20463;DHT22;10390;53.566;9.980;2023-06-04T12:51:08;28.70;1.00
20463;DHT22;10390;53.566;9.980;2023-06-04T12:53:38;28.70;1.00
20463;DHT22;10390;53.566;9.980;2023-06-04T12:56:04;28.70;1.00
20463;DHT22;10390;53.566;9.980;2023-06-04T12:58:30;28.70;1.00
20463;DHT22;10390;53.566;9.980;2023-06-04T13:00:55;28.70;1.00
20463;DHT22;10390;53.566;9.980;2023-06-04T13:03:21;28.70;1.00
20463;DHT22;10390;53.566;9.980;2023-06-04T13:05:46;28.70;1.00
20463;DHT22;10390;53.566;9.980;2023-06-04T13:08:12;28.70;1.00
20463;DHT22;10390;53.566;9.980;2023-06-04T13:10:38;28.70;1.00
20463;DHT22;10390;53.566;9.980;2023-06-04T13:13:03;28.70;1.00
20463;DHT22;10390;53.566;9.980;2023-06-04T13:15:29;28.70;1.00
20463;DHT22;10390;53.566;9.980;2023-06-04T13:17:55;28.70;1.00
20463;DHT22;10390;53.566;9.980;2023-06-04T13:20:20;28.70;1.00
20463;DHT22;10390;53.566;9.980;2023-06-04T13:22:46;28.70;1.00
20463;DHT22;10390;53.566;9.980;2023-06-04T13:25:12;28.70;1.00
20463;DHT22;10390;53.566;9.980;2023-06-04T13:27:38;28.70;1.00
20463;DHT22;10390;53.566;9.980;2023-06-04T13:30:05;28.70;1.00
20463;DHT22;10390;53.566;9.980;2023-06-04T13:32:31;28.70;1.00
20463;DHT22;10390;53.566;9.980;2023-06-04T13:34:56;28.70;1.00
20463;DHT22;10390;53.566;9.980;2023-06-04T13:37:22;28.70;1.00
20463;DHT22;10390;53.566;9.980;2023-06-04T13:39:48;28.70;1.00
20463;DHT22;10390;53.566;9.980;2023-06-04T13:42:14;28.60;1.00
20463;DHT22;10390;53.566;9.980;2023-06-04T13:44:39;28.70;1.00
20463;DHT22;10390;53.566;9.980;2023-06-04T13:47:05;28.70;1.00
20463;DHT22;10390;53.566;9.980;2023-06-04T13:49:34;28.70;1.00
20463;DHT22;10390;53.566;9.980;2023-06-04T13:52:00;28.70;1.00
20463;DHT22;10390;53.566;9.980;2023-06-04T13:54:26;28.70;1.00
20463;DHT22;10390;53.566;9.980;2023-06-04T13:56:51;28.70;1.00
20463;DHT22;10390;53.566;9.980;2023-06-04T13:59:17;28.70;1.00
20463;DHT22;10390;53.566;9.980;2023-06-04T14:01:43;28.70;1.00
20463;DHT22;10390;53.566;9.980;2023-06-04T14:04:08;28.70;1.00
20463;DHT22;10390;53.566;9.980;2023-06-04T14:06:36;28.70;1.00
20463;DHT22;10390;53.566;9.980;2023-06-04T14:09:06;28.70;1.00
20463;DHT22;10390;53.566;9.980;2023-06-04T14:11:32;28.70;1.00
20463;DHT22;10390;53.566;9.980;2023-06-04T14:13:58;28.70;1.00
20463;DHT22;10390;53.566;9.980;2023-06-04T14:16:24;28.70;1.00
20463;DHT22;10390;53.566;9.980;2023-06-04T14:18:49;28.70;1.00
20463;DHT22;10390;53.566;9.980;2023-06-04T14:21:15;28.70;1.00
20463;DHT22;10390;53.566;9.980;2023-06-04T14:23:41;28.70;1.00
20463;DHT22;10390;53.566;9.980;2023-06-04T14:26:06;28.70;1.00
20463;DHT22;10390;53.566;9.980;2023-06-04T14:28:32;28.70;1.00
20463;DHT22;10390;53.566;9.980;2023-06-04T14:30:57;28.70;1.00
20463;DHT22;10390;53.566;9.980;2023-06-04T14:33:24;28.70;1.00
20463;DHT22;10390;53.566;9.980;2023-06-04T14:35:50;28.70;1.00
20463;DHT22;10390;53.566;9.980;2023-06-04T14:38:16;28.70;1.00
20463;DHT22;10390;53.566;9.980;2023-06-04T14:40:42;28.70;1.00
20463;DHT22;10390;53.566;9.980;2023-06-04T14:43:13;28.70;1.00
20463;DHT22;10390;53.566;9.980;2023-06-04T14:45:39;28.70;1.00
20463;DHT22;10390;53.566;9.980;2023-06-04T14:48:06;28.70;1.00
20463;DHT22;10390;53.566;9.980;2023-06-04T14:50:32;28.70;1.00
20463;DHT22;10390;53.566;9.980;2023-06-04T14:52:57;28.70;1.00
20463;DHT22;10390;53.566;9.980;2023-06-04T14:55:24;28.70;1.00
20463;DHT22;10390;53.566;9.980;2023-06-04T14:57:50;28.70;1.00
20463;DHT22;10390;53.566;9.980;2023-06-04T15:00:16;28.70;1.00
20463;DHT22;10390;53.566;9.980;2023-06-04T15:02:42;28.70;1.00
20463;DHT22;10390;53.566;9.980;2023-06-04T15:05:08;28.70;1.00
20463;DHT22;10390;53.566;9.980;2023-06-04T15:07:33;28.70;1.00
20463;DHT22;10390;53.566;9.980;2023-06-04T15:09:59;28.70;1.00
20463;DHT22;10390;53.566;9.980;2023-06-04T15:12:27;28.70;1.00
20463;DHT22;10390;53.566;9.980;2023-06-04T15:14:53;28.70;1.00
20463;DHT22;10390;53.566;9.980;2023-06-04T15:17:18;28.70;1.00
20463;DHT22;10390;53.566;9.980;2023-06-04T15:19:44;28.70;1.00
20463;DHT22;10390;53.566;9.980;2023-06-04T15:22:10;28.70;1.00
20463;DHT22;10390;53.566;9.980;2023-06-04T15:24:35;28.70;1.00
20463;DHT22;10390;53.566;9.980;2023-06-04T15:27:01;28.70;1.00
20463;DHT22;10390;53.566;9.980;2023-06-04T15:29:26;28.70;1.00
20463;DHT22;10390;53.566;9.980;2023-06-04T15:31:52;28.70;1.00
20463;DHT22;10390;53.566;9.980;2023-06-04T15:34:18;28.60;1.00
20463;DHT22;10390;53.566;9.980;2023-06-04T15:36:44;28.70;1.00
20463;DHT22;10390;53.566;9.980;2023-06-04T15:39:12;28.70;1.00
20463;DHT22;10390;53.566;9.980;2023-06-04T15:41:37;28.60;1.00
20463;DHT22;10390;53.566;9.980;2023-06-04T15:44:03;28.70;1.00
20463;DHT22;10390;53.566;9.980;2023-06-04T15:46:29;28.60;1.00
20463;DHT22;10390;53.566;9.980;2023-06-04T15:48:55;28.60;1.00
20463;DHT22;10390;53.566;9.980;2023-06-04T15:51:21;28.70;1.00